sensor_id;sensor_type;location;lat;lon;timestamp;temperature;humidity
64983;DHT22;62161;54.688;25.256;2022-08-01T00:01:02;18.38;96.08
64983;DHT22;62161;54.688;25.256;2022-08-01T00:03:27;18.31;96.07
64983;DHT22;62161;54.688;25.256;2022-08-01T00:05:52;18.29;96.01
64983;DHT22;62161;54.688;25.256;2022-08-01T00:08:18;18.32;95.96
64983;DHT22;62161;54.688;25.256;2022-08-01T00:10:43;18.37;96.32
64983;DHT22;62161;54.688;25.256;2022-08-01T00:13:09;18.41;96.38
64983;DHT22;62161;54.688;25.256;2022-08-01T00:15:34;18.39;96.65
64983;DHT22;62161;54.688;25.256;2022-08-01T00:18:00;18.45;96.69
64983;DHT22;62161;54.688;25.256;2022-08-01T00:20:26;18.41;96.47
64983;DHT22;62161;54.688;25.256;2022-08-01T00:22:51;18.35;95.93
64983;DHT22;62161;54.688;25.256;2022-08-01T00:25:17;18.39;96.47
64983;DHT22;62161;54.688;25.256;2022-08-01T00:27:42;18.44;96.50
64983;DHT22;62161;54.688;25.256;2022-08-01T00:30:08;18.44;96.44
64983;DHT22;62161;54.688;25.256;2022-08-01T00:32:33;18.44;95.86
64983;DHT22;62161;54.688;25.256;2022-08-01T00:34:59;18.44;96.36
64983;DHT22;62161;54.688;25.256;2022-08-01T00:37:24;18.35;95.96
64983;DHT22;62161;54.688;25.256;2022-08-01T00:39:49;18.32;96.18
64983;DHT22;62161;54.688;25.256;2022-08-01T00:42:15;18.35;96.26
64983;DHT22;62161;54.688;25.256;2022-08-01T00:44:40;18.32;96.01
64983;DHT22;62161;54.688;25.256;2022-08-01T00:47:06;18.34;96.18
64983;DHT22;62161;54.688;25.256;2022-08-01T00:49:32;18.49;95.84
64983;DHT22;62161;54.688;25.256;2022-08-01T00:51:58;18.39;95.89
64983;DHT22;62161;54.688;25.256;2022-08-01T00:54:25;18.31;96.07
64983;DHT22;62161;54.688;25.256;2022-08-01T00:56:51;18.21;96.13
64983;DHT22;62161;54.688;25.256;2022-08-01T00:59:17;18.21;96.33
64983;DHT22;62161;54.688;25.256;2022-08-01T01:01:43;18.21;96.16
64983;DHT22;62161;54.688;25.256;2022-08-01T01:04:09;18.17;96.59
64983;DHT22;62161;54.688;25.256;2022-08-01T01:14:30;18.24;96.75
64983;DHT22;62161;54.688;25.256;2022-08-01T01:16:58;18.28;96.68
64983;DHT22;62161;54.688;25.256;2022-08-01T01:19:28;18.35;96.64
64983;DHT22;62161;54.688;25.256;2022-08-01T01:22:23;18.25;96.50
64983;DHT22;62161;54.688;25.256;2022-08-01T01:30:36;18.44;96.82
64983;DHT22;62161;54.688;25.256;2022-08-01T01:33:06;18.41;96.74
64983;DHT22;62161;54.688;25.256;2022-08-01T01:35:35;18.44;96.84
64983;DHT22;62161;54.688;25.256;2022-08-01T01:38:08;18.37;96.42
64983;DHT22;62161;54.688;25.256;2022-08-01T01:40:34;18.38;96.71
64983;DHT22;62161;54.688;25.256;2022-08-01T01:43:01;18.37;96.15
64983;DHT22;62161;54.688;25.256;2022-08-01T01:45:27;18.42;96.79
64983;DHT22;62161;54.688;25.256;2022-08-01T01:47:54;18.39;96.86
64983;DHT22;62161;54.688;25.256;2022-08-01T01:50:20;18.39;96.31
64983;DHT22;62161;54.688;25.256;2022-08-01T01:52:48;18.35;96.54
64983;DHT22;62161;54.688;25.256;2022-08-01T01:55:14;18.37;96.75
64983;DHT22;62161;54.688;25.256;2022-08-01T01:57:41;18.42;96.75
64983;DHT22;62161;54.688;25.256;2022-08-01T02:00:12;18.45;96.44
64983;DHT22;62161;54.688;25.256;2022-08-01T02:02:39;18.42;96.70
64983;DHT22;62161;54.688;25.256;2022-08-01T02:05:10;18.39;96.60
64983;DHT22;62161;54.688;25.256;2022-08-01T02:07:37;18.44;96.79
64983;DHT22;62161;54.688;25.256;2022-08-01T02:10:04;18.51;96.60
64983;DHT22;62161;54.688;25.256;2022-08-01T02:12:32;18.47;96.81
64983;DHT22;62161;54.688;25.256;2022-08-01T02:14:59;18.47;96.65
64983;DHT22;62161;54.688;25.256;2022-08-01T02:17:25;18.45;96.75
64983;DHT22;62161;54.688;25.256;2022-08-01T02:19:52;18.39;95.97
64983;DHT22;62161;54.688;25.256;2022-08-01T02:22:34;18.38;96.58
64983;DHT22;62161;54.688;25.256;2022-08-01T02:28:04;18.62;95.80
64983;DHT22;62161;54.688;25.256;2022-08-01T02:30:33;18.67;95.23
64983;DHT22;62161;54.688;25.256;2022-08-01T02:33:04;18.65;95.42
64983;DHT22;62161;54.688;25.256;2022-08-01T02:35:34;18.56;95.42
64983;DHT22;62161;54.688;25.256;2022-08-01T02:38:01;18.52;95.73
64983;DHT22;62161;54.688;25.256;2022-08-01T02:40:29;18.56;95.83
64983;DHT22;62161;54.688;25.256;2022-08-01T02:42:59;18.55;94.90
64983;DHT22;62161;54.688;25.256;2022-08-01T02:45:26;18.52;94.86
64983;DHT22;62161;54.688;25.256;2022-08-01T02:47:55;18.60;95.26
64983;DHT22;62161;54.688;25.256;2022-08-01T02:50:22;18.59;94.58
64983;DHT22;62161;54.688;25.256;2022-08-01T02:52:50;18.59;94.88
64983;DHT22;62161;54.688;25.256;2022-08-01T02:55:17;18.66;94.61
64983;DHT22;62161;54.688;25.256;2022-08-01T02:57:45;18.63;94.93
64983;DHT22;62161;54.688;25.256;2022-08-01T03:00:15;18.65;94.77
64983;DHT22;62161;54.688;25.256;2022-08-01T03:02:41;18.59;95.06
64983;DHT22;62161;54.688;25.256;2022-08-01T03:05:10;18.53;95.51
64983;DHT22;62161;54.688;25.256;2022-08-01T03:07:38;18.53;95.69
64983;DHT22;62161;54.688;25.256;2022-08-01T03:10:04;18.65;95.54
64983;DHT22;62161;54.688;25.256;2022-08-01T03:12:31;18.59;95.62
64983;DHT22;62161;54.688;25.256;2022-08-01T03:14:59;18.73;95.22
64983;DHT22;62161;54.688;25.256;2022-08-01T03:17:27;18.82;94.55
64983;DHT22;62161;54.688;25.256;2022-08-01T03:19:54;18.82;94.65
64983;DHT22;62161;54.688;25.256;2022-08-01T03:22:22;18.72;94.97
64983;DHT22;62161;54.688;25.256;2022-08-01T03:24:51;18.83;94.39
64983;DHT22;62161;54.688;25.256;2022-08-01T03:27:19;18.82;94.30
64983;DHT22;62161;54.688;25.256;2022-08-01T03:29:46;18.92;94.43
64983;DHT22;62161;54.688;25.256;2022-08-01T03:32:13;18.89;94.58
64983;DHT22;62161;54.688;25.256;2022-08-01T03:34:39;18.95;94.34
64983;DHT22;62161;54.688;25.256;2022-08-01T03:37:09;18.89;95.12
64983;DHT22;62161;54.688;25.256;2022-08-01T03:40:03;18.85;95.06
64983;DHT22;62161;54.688;25.256;2022-08-01T03:42:36;19.06;93.71
64983;DHT22;62161;54.688;25.256;2022-08-01T03:45:08;19.02;93.69
64983;DHT22;62161;54.688;25.256;2022-08-01T03:47:42;19.04;93.68
64983;DHT22;62161;54.688;25.256;2022-08-01T03:50:10;19.10;93.50
64983;DHT22;62161;54.688;25.256;2022-08-01T03:52:38;19.10;93.33
64983;DHT22;62161;54.688;25.256;2022-08-01T03:55:06;19.10;93.32
64983;DHT22;62161;54.688;25.256;2022-08-01T03:57:35;19.08;93.44
64983;DHT22;62161;54.688;25.256;2022-08-01T04:00:02;19.10;93.85
64983;DHT22;62161;54.688;25.256;2022-08-01T04:02:31;19.06;94.12
64983;DHT22;62161;54.688;25.256;2022-08-01T04:04:58;19.16;93.44
64983;DHT22;62161;54.688;25.256;2022-08-01T04:07:26;19.20;93.09
64983;DHT22;62161;54.688;25.256;2022-08-01T04:09:52;19.21;93.39
64983;DHT22;62161;54.688;25.256;2022-08-01T04:12:18;19.20;93.49
64983;DHT22;62161;54.688;25.256;2022-08-01T04:14:43;19.25;92.83
64983;DHT22;62161;54.688;25.256;2022-08-01T04:17:09;19.23;93.05
64983;DHT22;62161;54.688;25.256;2022-08-01T04:19:34;19.24;92.88
64983;DHT22;62161;54.688;25.256;2022-08-01T04:21:59;19.20;93.35
64983;DHT22;62161;54.688;25.256;2022-08-01T04:24:27;19.31;92.38
64983;DHT22;62161;54.688;25.256;2022-08-01T04:26:55;19.24;92.78
64983;DHT22;62161;54.688;25.256;2022-08-01T04:29:22;19.28;92.65
64983;DHT22;62161;54.688;25.256;2022-08-01T04:31:49;19.34;92.20
64983;DHT22;62161;54.688;25.256;2022-08-01T04:34:17;19.32;92.67
64983;DHT22;62161;54.688;25.256;2022-08-01T04:36:47;19.30;92.83
64983;DHT22;62161;54.688;25.256;2022-08-01T04:39:14;19.31;92.70
64983;DHT22;62161;54.688;25.256;2022-08-01T04:41:47;19.23;93.66
64983;DHT22;62161;54.688;25.256;2022-08-01T04:44:14;19.28;93.49
64983;DHT22;62161;54.688;25.256;2022-08-01T04:46:40;19.37;92.98
64983;DHT22;62161;54.688;25.256;2022-08-01T04:49:10;19.45;92.51
64983;DHT22;62161;54.688;25.256;2022-08-01T04:51:37;19.47;92.51
64983;DHT22;62161;54.688;25.256;2022-08-01T04:54:14;19.48;92.08
64983;DHT22;62161;54.688;25.256;2022-08-01T04:56:39;19.38;92.77
64983;DHT22;62161;54.688;25.256;2022-08-01T04:59:04;19.41;92.51
64983;DHT22;62161;54.688;25.256;2022-08-01T05:01:49;19.45;92.95
64983;DHT22;62161;54.688;25.256;2022-08-01T05:04:15;19.44;93.26
64983;DHT22;62161;54.688;25.256;2022-08-01T05:06:40;19.47;92.63
64983;DHT22;62161;54.688;25.256;2022-08-01T05:09:09;19.54;91.61
64983;DHT22;62161;54.688;25.256;2022-08-01T05:11:35;19.48;91.69
64983;DHT22;62161;54.688;25.256;2022-08-01T05:14:00;19.48;91.95
64983;DHT22;62161;54.688;25.256;2022-08-01T05:16:25;19.44;91.64
64983;DHT22;62161;54.688;25.256;2022-08-01T05:18:51;19.41;91.86
64983;DHT22;62161;54.688;25.256;2022-08-01T05:21:17;19.35;93.30
64983;DHT22;62161;54.688;25.256;2022-08-01T05:23:42;19.43;92.10
64983;DHT22;62161;54.688;25.256;2022-08-01T05:26:08;19.45;91.87
64983;DHT22;62161;54.688;25.256;2022-08-01T05:28:33;19.27;92.84
64983;DHT22;62161;54.688;25.256;2022-08-01T05:30:58;19.28;93.29
64983;DHT22;62161;54.688;25.256;2022-08-01T05:33:24;19.31;92.58
64983;DHT22;62161;54.688;25.256;2022-08-01T05:35:49;19.37;92.43
64983;DHT22;62161;54.688;25.256;2022-08-01T05:38:15;19.43;91.57
64983;DHT22;62161;54.688;25.256;2022-08-01T05:40:41;19.31;92.88
64983;DHT22;62161;54.688;25.256;2022-08-01T05:43:06;19.27;92.68
64983;DHT22;62161;54.688;25.256;2022-08-01T05:45:32;19.27;92.55
64983;DHT22;62161;54.688;25.256;2022-08-01T05:47:57;19.25;92.38
64983;DHT22;62161;54.688;25.256;2022-08-01T05:50:22;19.24;93.20
64983;DHT22;62161;54.688;25.256;2022-08-01T05:52:48;19.30;93.03
64983;DHT22;62161;54.688;25.256;2022-08-01T05:55:13;19.24;92.84
64983;DHT22;62161;54.688;25.256;2022-08-01T05:57:38;19.27;93.10
64983;DHT22;62161;54.688;25.256;2022-08-01T06:00:04;19.24;93.68
64983;DHT22;62161;54.688;25.256;2022-08-01T06:02:30;19.24;93.49
64983;DHT22;62161;54.688;25.256;2022-08-01T06:04:55;19.23;93.41
64983;DHT22;62161;54.688;25.256;2022-08-01T06:07:21;19.31;93.44
64983;DHT22;62161;54.688;25.256;2022-08-01T06:09:46;19.35;93.00
64983;DHT22;62161;54.688;25.256;2022-08-01T06:12:12;19.37;93.40
64983;DHT22;62161;54.688;25.256;2022-08-01T06:14:37;19.41;93.18
64983;DHT22;62161;54.688;25.256;2022-08-01T06:17:02;19.44;93.27
64983;DHT22;62161;54.688;25.256;2022-08-01T06:19:28;19.43;93.29
64983;DHT22;62161;54.688;25.256;2022-08-01T06:21:53;19.43;92.95
64983;DHT22;62161;54.688;25.256;2022-08-01T06:24:19;19.48;93.16
64983;DHT22;62161;54.688;25.256;2022-08-01T06:26:44;19.48;93.39
64983;DHT22;62161;54.688;25.256;2022-08-01T06:29:10;19.48;93.36
64983;DHT22;62161;54.688;25.256;2022-08-01T06:31:35;19.52;93.35
64983;DHT22;62161;54.688;25.256;2022-08-01T06:34:00;19.52;93.85
64983;DHT22;62161;54.688;25.256;2022-08-01T06:36:26;19.59;92.89
64983;DHT22;62161;54.688;25.256;2022-08-01T06:38:52;19.61;93.46
64983;DHT22;62161;54.688;25.256;2022-08-01T06:41:17;19.65;93.38
64983;DHT22;62161;54.688;25.256;2022-08-01T06:43:42;19.75;92.26
64983;DHT22;62161;54.688;25.256;2022-08-01T06:46:08;19.79;92.16
64983;DHT22;62161;54.688;25.256;2022-08-01T06:48:33;19.89;92.01
64983;DHT22;62161;54.688;25.256;2022-08-01T06:51:00;19.90;91.71
64983;DHT22;62161;54.688;25.256;2022-08-01T06:53:36;19.96;91.59
64983;DHT22;62161;54.688;25.256;2022-08-01T06:56:02;19.94;91.62
64983;DHT22;62161;54.688;25.256;2022-08-01T06:58:27;19.87;91.79
64983;DHT22;62161;54.688;25.256;2022-08-01T07:00:53;19.94;91.70
64983;DHT22;62161;54.688;25.256;2022-08-01T07:03:18;20.00;90.69
64983;DHT22;62161;54.688;25.256;2022-08-01T07:05:43;19.97;90.84
64983;DHT22;62161;54.688;25.256;2022-08-01T07:08:09;19.89;91.42
64983;DHT22;62161;54.688;25.256;2022-08-01T07:10:34;19.86;92.51
64983;DHT22;62161;54.688;25.256;2022-08-01T07:12:59;19.93;91.91
64983;DHT22;62161;54.688;25.256;2022-08-01T07:15:25;19.87;91.40
64983;DHT22;62161;54.688;25.256;2022-08-01T07:17:52;19.61;92.02
64983;DHT22;62161;54.688;25.256;2022-08-01T07:20:19;19.35;92.35
64983;DHT22;62161;54.688;25.256;2022-08-01T07:22:44;19.18;93.19
64983;DHT22;62161;54.688;25.256;2022-08-01T07:25:10;19.23;92.77
64983;DHT22;62161;54.688;25.256;2022-08-01T07:27:36;19.24;93.02
64983;DHT22;62161;54.688;25.256;2022-08-01T07:30:03;19.14;93.19
64983;DHT22;62161;54.688;25.256;2022-08-01T07:32:29;19.17;92.61
64983;DHT22;62161;54.688;25.256;2022-08-01T07:34:55;19.06;93.23
64983;DHT22;62161;54.688;25.256;2022-08-01T07:37:20;19.13;92.88
64983;DHT22;62161;54.688;25.256;2022-08-01T07:39:46;19.25;91.80
64983;DHT22;62161;54.688;25.256;2022-08-01T07:42:11;19.35;91.01
64983;DHT22;62161;54.688;25.256;2022-08-01T07:44:37;19.27;91.95
64983;DHT22;62161;54.688;25.256;2022-08-01T07:47:03;19.14;92.11
64983;DHT22;62161;54.688;25.256;2022-08-01T07:49:29;19.10;92.59
64983;DHT22;62161;54.688;25.256;2022-08-01T07:51:54;19.04;92.73
64983;DHT22;62161;54.688;25.256;2022-08-01T07:54:20;19.06;91.99
64983;DHT22;62161;54.688;25.256;2022-08-01T07:56:45;19.10;91.98
64983;DHT22;62161;54.688;25.256;2022-08-01T07:59:10;19.16;91.85
64983;DHT22;62161;54.688;25.256;2022-08-01T08:01:36;19.06;92.54
64983;DHT22;62161;54.688;25.256;2022-08-01T08:04:01;19.11;92.13
64983;DHT22;62161;54.688;25.256;2022-08-01T08:06:27;19.24;91.19
64983;DHT22;62161;54.688;25.256;2022-08-01T08:08:52;19.27;90.66
64983;DHT22;62161;54.688;25.256;2022-08-01T08:11:19;19.20;90.62
64983;DHT22;62161;54.688;25.256;2022-08-01T08:13:44;19.25;88.40
64983;DHT22;62161;54.688;25.256;2022-08-01T08:16:10;19.14;89.72
64983;DHT22;62161;54.688;25.256;2022-08-01T08:18:35;19.07;89.89
64983;DHT22;62161;54.688;25.256;2022-08-01T08:21:02;19.06;89.94
64983;DHT22;62161;54.688;25.256;2022-08-01T08:23:27;19.21;90.17
64983;DHT22;62161;54.688;25.256;2022-08-01T08:26:11;19.18;90.59
64983;DHT22;62161;54.688;25.256;2022-08-01T08:28:37;19.20;90.67
64983;DHT22;62161;54.688;25.256;2022-08-01T08:31:02;19.08;89.80
64983;DHT22;62161;54.688;25.256;2022-08-01T08:33:31;19.06;90.57
64983;DHT22;62161;54.688;25.256;2022-08-01T08:35:56;19.08;90.98
64983;DHT22;62161;54.688;25.256;2022-08-01T08:38:22;19.07;89.88
64983;DHT22;62161;54.688;25.256;2022-08-01T08:40:47;18.93;90.39
64983;DHT22;62161;54.688;25.256;2022-08-01T08:43:14;18.93;90.19
64983;DHT22;62161;54.688;25.256;2022-08-01T08:45:41;18.93;90.97
64983;DHT22;62161;54.688;25.256;2022-08-01T08:48:07;19.08;89.57
64983;DHT22;62161;54.688;25.256;2022-08-01T08:50:33;19.08;90.83
64983;DHT22;62161;54.688;25.256;2022-08-01T08:53:00;19.24;90.00
64983;DHT22;62161;54.688;25.256;2022-08-01T08:55:26;19.34;89.48
64983;DHT22;62161;54.688;25.256;2022-08-01T08:57:53;19.51;88.23
64983;DHT22;62161;54.688;25.256;2022-08-01T09:00:19;19.57;88.14
64983;DHT22;62161;54.688;25.256;2022-08-01T09:02:46;19.59;86.75
64983;DHT22;62161;54.688;25.256;2022-08-01T09:05:12;19.76;85.82
64983;DHT22;62161;54.688;25.256;2022-08-01T09:07:38;19.85;85.43
64983;DHT22;62161;54.688;25.256;2022-08-01T09:10:05;19.79;84.26
64983;DHT22;62161;54.688;25.256;2022-08-01T09:12:31;19.78;87.00
64983;DHT22;62161;54.688;25.256;2022-08-01T09:14:56;19.50;86.26
64983;DHT22;62161;54.688;25.256;2022-08-01T09:17:22;19.45;86.96
64983;DHT22;62161;54.688;25.256;2022-08-01T09:19:50;19.38;85.67
64983;DHT22;62161;54.688;25.256;2022-08-01T09:22:21;19.34;85.50
64983;DHT22;62161;54.688;25.256;2022-08-01T09:27:29;19.30;86.86
64983;DHT22;62161;54.688;25.256;2022-08-01T09:30:14;19.51;86.24
64983;DHT22;62161;54.688;25.256;2022-08-01T09:33:01;19.62;84.90
64983;DHT22;62161;54.688;25.256;2022-08-01T09:35:32;19.66;84.80
64983;DHT22;62161;54.688;25.256;2022-08-01T09:40:58;19.45;86.68
64983;DHT22;62161;54.688;25.256;2022-08-01T09:43:25;19.51;86.39
64983;DHT22;62161;54.688;25.256;2022-08-01T09:45:51;19.50;85.92
64983;DHT22;62161;54.688;25.256;2022-08-01T09:48:18;19.64;84.69
64983;DHT22;62161;54.688;25.256;2022-08-01T09:50:45;19.59;85.03
64983;DHT22;62161;54.688;25.256;2022-08-01T09:53:12;19.61;83.92
64983;DHT22;62161;54.688;25.256;2022-08-01T09:55:39;19.99;83.41
64983;DHT22;62161;54.688;25.256;2022-08-01T09:58:05;20.27;80.17
64983;DHT22;62161;54.688;25.256;2022-08-01T10:00:31;20.34;81.93
64983;DHT22;62161;54.688;25.256;2022-08-01T10:02:57;20.51;82.05
64983;DHT22;62161;54.688;25.256;2022-08-01T10:05:33;20.47;81.67
64983;DHT22;62161;54.688;25.256;2022-08-01T10:08:02;20.39;81.39
64983;DHT22;62161;54.688;25.256;2022-08-01T10:10:29;20.30;82.11
64983;DHT22;62161;54.688;25.256;2022-08-01T10:12:56;20.03;83.53
64983;DHT22;62161;54.688;25.256;2022-08-01T10:15:23;20.23;82.13
64983;DHT22;62161;54.688;25.256;2022-08-01T10:18:00;20.26;82.58
64983;DHT22;62161;54.688;25.256;2022-08-01T10:20:29;20.24;80.50
64983;DHT22;62161;54.688;25.256;2022-08-01T10:22:55;20.14;81.51
64983;DHT22;62161;54.688;25.256;2022-08-01T10:25:23;19.94;81.45
64983;DHT22;62161;54.688;25.256;2022-08-01T10:27:53;20.03;81.31
64983;DHT22;62161;54.688;25.256;2022-08-01T10:30:22;19.93;82.73
64983;DHT22;62161;54.688;25.256;2022-08-01T10:32:51;20.06;81.98
64983;DHT22;62161;54.688;25.256;2022-08-01T10:35:20;20.09;81.83
64983;DHT22;62161;54.688;25.256;2022-08-01T10:37:46;20.36;82.82
64983;DHT22;62161;54.688;25.256;2022-08-01T10:40:15;20.75;79.62
64983;DHT22;62161;54.688;25.256;2022-08-01T10:42:45;20.92;78.27
64983;DHT22;62161;54.688;25.256;2022-08-01T10:45:13;21.06;79.14
64983;DHT22;62161;54.688;25.256;2022-08-01T10:50:34;20.88;78.80
64983;DHT22;62161;54.688;25.256;2022-08-01T10:58:34;20.74;79.46
64983;DHT22;62161;54.688;25.256;2022-08-01T11:01:15;20.37;80.35
64983;DHT22;62161;54.688;25.256;2022-08-01T11:03:43;20.34;80.77
64983;DHT22;62161;54.688;25.256;2022-08-01T11:06:20;20.45;81.13
64983;DHT22;62161;54.688;25.256;2022-08-01T11:08:52;20.72;79.18
64983;DHT22;62161;54.688;25.256;2022-08-01T11:11:19;20.68;79.98
64983;DHT22;62161;54.688;25.256;2022-08-01T11:14:04;20.75;79.56
64983;DHT22;62161;54.688;25.256;2022-08-01T11:16:36;20.81;79.19
64983;DHT22;62161;54.688;25.256;2022-08-01T11:19:04;20.64;79.62
64983;DHT22;62161;54.688;25.256;2022-08-01T11:35:13;19.92;82.14
64983;DHT22;62161;54.688;25.256;2022-08-01T11:37:39;20.13;80.97
64983;DHT22;62161;54.688;25.256;2022-08-01T11:40:18;20.47;79.99
64983;DHT22;62161;54.688;25.256;2022-08-01T11:42:45;20.79;79.42
64983;DHT22;62161;54.688;25.256;2022-08-01T11:45:34;21.15;79.06
64983;DHT22;62161;54.688;25.256;2022-08-01T11:48:20;21.58;76.69
64983;DHT22;62161;54.688;25.256;2022-08-01T11:50:46;21.54;75.61
64983;DHT22;62161;54.688;25.256;2022-08-01T11:53:11;21.43;76.27
64983;DHT22;62161;54.688;25.256;2022-08-01T11:55:45;21.12;77.73
64983;DHT22;62161;54.688;25.256;2022-08-01T11:58:24;20.92;78.38
64983;DHT22;62161;54.688;25.256;2022-08-01T12:01:00;20.77;78.82
64983;DHT22;62161;54.688;25.256;2022-08-01T12:03:27;20.36;81.45
64983;DHT22;62161;54.688;25.256;2022-08-01T12:05:54;20.08;82.42
64983;DHT22;62161;54.688;25.256;2022-08-01T12:08:30;19.93;83.08
64983;DHT22;62161;54.688;25.256;2022-08-01T12:10:58;19.72;82.19
64983;DHT22;62161;54.688;25.256;2022-08-01T12:13:23;19.62;82.24
64983;DHT22;62161;54.688;25.256;2022-08-01T12:15:50;19.72;82.01
64983;DHT22;62161;54.688;25.256;2022-08-01T12:18:16;19.79;82.73
64983;DHT22;62161;54.688;25.256;2022-08-01T12:20:43;19.72;83.92
64983;DHT22;62161;54.688;25.256;2022-08-01T12:23:11;19.52;83.73
64983;DHT22;62161;54.688;25.256;2022-08-01T12:25:38;19.72;83.29
64983;DHT22;62161;54.688;25.256;2022-08-01T12:28:10;19.93;82.81
64983;DHT22;62161;54.688;25.256;2022-08-01T12:30:37;20.27;81.74
64983;DHT22;62161;54.688;25.256;2022-08-01T12:33:04;20.58;80.98
64983;DHT22;62161;54.688;25.256;2022-08-01T12:35:30;21.02;77.92
64983;DHT22;62161;54.688;25.256;2022-08-01T12:37:58;21.26;77.12
64983;DHT22;62161;54.688;25.256;2022-08-01T12:40:33;21.37;77.58
64983;DHT22;62161;54.688;25.256;2022-08-01T12:43:01;21.66;77.22
64983;DHT22;62161;54.688;25.256;2022-08-01T12:45:42;21.81;77.32
64983;DHT22;62161;54.688;25.256;2022-08-01T12:48:18;21.91;76.67
64983;DHT22;62161;54.688;25.256;2022-08-01T12:50:46;21.93;75.40
64983;DHT22;62161;54.688;25.256;2022-08-01T12:53:12;21.70;76.49
64983;DHT22;62161;54.688;25.256;2022-08-01T12:55:51;21.19;78.16
64983;DHT22;62161;54.688;25.256;2022-08-01T12:58:20;20.75;78.45
64983;DHT22;62161;54.688;25.256;2022-08-01T13:00:48;20.36;81.08
64983;DHT22;62161;54.688;25.256;2022-08-01T13:03:16;20.08;81.31
64983;DHT22;62161;54.688;25.256;2022-08-01T13:05:55;19.97;82.36
64983;DHT22;62161;54.688;25.256;2022-08-01T13:10:46;20.05;81.64
64983;DHT22;62161;54.688;25.256;2022-08-01T13:13:13;20.09;81.28
64983;DHT22;62161;54.688;25.256;2022-08-01T13:15:41;20.41;81.61
64983;DHT22;62161;54.688;25.256;2022-08-01T13:18:30;20.64;78.92
64983;DHT22;62161;54.688;25.256;2022-08-01T13:21:28;20.92;78.42
64983;DHT22;62161;54.688;25.256;2022-08-01T13:24:11;21.05;78.45
64983;DHT22;62161;54.688;25.256;2022-08-01T13:26:58;21.20;77.20
64983;DHT22;62161;54.688;25.256;2022-08-01T13:29:35;21.19;78.18
64983;DHT22;62161;54.688;25.256;2022-08-01T13:32:16;21.12;76.12
64983;DHT22;62161;54.688;25.256;2022-08-01T13:34:42;21.18;75.68
64983;DHT22;62161;54.688;25.256;2022-08-01T13:37:07;21.02;76.33
64983;DHT22;62161;54.688;25.256;2022-08-01T13:39:34;21.25;75.24
64983;DHT22;62161;54.688;25.256;2022-08-01T13:42:09;21.18;76.53
64983;DHT22;62161;54.688;25.256;2022-08-01T13:44:35;21.32;75.54
64983;DHT22;62161;54.688;25.256;2022-08-01T13:47:02;21.09;76.37
64983;DHT22;62161;54.688;25.256;2022-08-01T13:49:27;21.27;75.74
64983;DHT22;62161;54.688;25.256;2022-08-01T13:51:53;21.50;75.27
64983;DHT22;62161;54.688;25.256;2022-08-01T13:54:18;21.73;74.41
64983;DHT22;62161;54.688;25.256;2022-08-01T13:56:44;21.84;74.40
64983;DHT22;62161;54.688;25.256;2022-08-01T13:59:30;21.88;73.33
64983;DHT22;62161;54.688;25.256;2022-08-01T14:01:56;21.74;73.97
64983;DHT22;62161;54.688;25.256;2022-08-01T14:04:21;21.49;73.12
64983;DHT22;62161;54.688;25.256;2022-08-01T14:06:47;21.33;74.48
64983;DHT22;62161;54.688;25.256;2022-08-01T14:09:13;21.27;74.34
64983;DHT22;62161;54.688;25.256;2022-08-01T14:11:55;21.16;75.70
64983;DHT22;62161;54.688;25.256;2022-08-01T14:14:21;21.19;75.09
64983;DHT22;62161;54.688;25.256;2022-08-01T14:16:46;20.94;76.27
64983;DHT22;62161;54.688;25.256;2022-08-01T14:19:12;21.03;76.12
64983;DHT22;62161;54.688;25.256;2022-08-01T14:21:37;21.09;76.25
64983;DHT22;62161;54.688;25.256;2022-08-01T14:24:03;21.27;75.20
64983;DHT22;62161;54.688;25.256;2022-08-01T14:26:28;21.25;75.30
64983;DHT22;62161;54.688;25.256;2022-08-01T14:28:53;21.18;75.23
64983;DHT22;62161;54.688;25.256;2022-08-01T14:31:19;21.19;75.58
64983;DHT22;62161;54.688;25.256;2022-08-01T14:33:44;21.13;75.37
64983;DHT22;62161;54.688;25.256;2022-08-01T14:36:10;20.74;76.27
64983;DHT22;62161;54.688;25.256;2022-08-01T14:38:35;20.43;77.68
64983;DHT22;62161;54.688;25.256;2022-08-01T14:41:01;20.52;77.10
64983;DHT22;62161;54.688;25.256;2022-08-01T14:43:28;20.24;78.54
64983;DHT22;62161;54.688;25.256;2022-08-01T14:45:53;20.24;78.95
64983;DHT22;62161;54.688;25.256;2022-08-01T14:48:19;20.30;78.81
64983;DHT22;62161;54.688;25.256;2022-08-01T14:50:45;20.34;78.48
64983;DHT22;62161;54.688;25.256;2022-08-01T14:53:11;20.34;78.90
64983;DHT22;62161;54.688;25.256;2022-08-01T14:55:36;20.23;78.91
64983;DHT22;62161;54.688;25.256;2022-08-01T14:58:02;20.31;78.84
64983;DHT22;62161;54.688;25.256;2022-08-01T15:00:27;20.45;78.69
64983;DHT22;62161;54.688;25.256;2022-08-01T15:02:52;20.45;79.23
64983;DHT22;62161;54.688;25.256;2022-08-01T15:05:24;20.48;78.31
64983;DHT22;62161;54.688;25.256;2022-08-01T15:07:59;20.24;78.90
64983;DHT22;62161;54.688;25.256;2022-08-01T15:10:24;20.13;79.11
64983;DHT22;62161;54.688;25.256;2022-08-01T15:12:50;20.13;79.61
64983;DHT22;62161;54.688;25.256;2022-08-01T15:15:15;20.08;80.02
64983;DHT22;62161;54.688;25.256;2022-08-01T15:17:40;20.09;79.57
64983;DHT22;62161;54.688;25.256;2022-08-01T15:20:06;20.17;78.96
64983;DHT22;62161;54.688;25.256;2022-08-01T15:22:33;20.17;79.42
64983;DHT22;62161;54.688;25.256;2022-08-01T15:25:00;20.24;78.92
64983;DHT22;62161;54.688;25.256;2022-08-01T15:27:27;20.31;78.60
64983;DHT22;62161;54.688;25.256;2022-08-01T15:29:53;20.33;79.36
64983;DHT22;62161;54.688;25.256;2022-08-01T15:32:18;20.40;78.34
64983;DHT22;62161;54.688;25.256;2022-08-01T15:34:44;20.41;78.43
64983;DHT22;62161;54.688;25.256;2022-08-01T15:37:10;20.34;78.65
64983;DHT22;62161;54.688;25.256;2022-08-01T15:39:35;20.39;78.43
64983;DHT22;62161;54.688;25.256;2022-08-01T15:42:22;20.30;78.51
64983;DHT22;62161;54.688;25.256;2022-08-01T15:44:47;20.34;79.00
64983;DHT22;62161;54.688;25.256;2022-08-01T15:47:12;20.51;78.26
64983;DHT22;62161;54.688;25.256;2022-08-01T15:49:43;20.48;78.07
64983;DHT22;62161;54.688;25.256;2022-08-01T15:52:08;20.45;78.06
64983;DHT22;62161;54.688;25.256;2022-08-01T15:54:34;20.40;78.61
64983;DHT22;62161;54.688;25.256;2022-08-01T15:57:00;20.47;78.32
64983;DHT22;62161;54.688;25.256;2022-08-01T15:59:26;20.45;78.08
64983;DHT22;62161;54.688;25.256;2022-08-01T16:01:52;20.47;78.10
64983;DHT22;62161;54.688;25.256;2022-08-01T16:04:18;20.50;78.15
64983;DHT22;62161;54.688;25.256;2022-08-01T16:06:44;20.51;77.44